sensor_id;sensor_type;location;lat;lon;timestamp;P1;durP1;ratioP1;P2;durP2;ratioP2
75154;SDS011;63735;44.730;37.818;2022-12-01T00:00:34;13.43;;;2.25;;
75154;SDS011;63735;44.730;37.818;2022-12-01T00:02:59;4.72;;;1.63;;
75154;SDS011;63735;44.730;37.818;2022-12-01T00:05:25;2.80;;;1.63;;
75154;SDS011;63735;44.730;37.818;2022-12-01T00:07:51;4.93;;;1.42;;
75154;SDS011;63735;44.730;37.818;2022-12-01T00:10:17;6.22;;;1.83;;
75154;SDS011;63735;44.730;37.818;2022-12-01T00:12:53;2.80;;;1.80;;
75154;SDS011;63735;44.730;37.818;2022-12-01T00:15:20;3.40;;;1.80;;
75154;SDS011;63735;44.730;37.818;2022-12-01T00:17:46;3.58;;;1.75;;
75154;SDS011;63735;44.730;37.818;2022-12-01T00:20:13;8.88;;;1.50;;
75154;SDS011;63735;44.730;37.818;2022-12-01T00:22:43;5.75;;;1.70;;
75154;SDS011;63735;44.730;37.818;2022-12-01T00:25:10;4.35;;;1.40;;
75154;SDS011;63735;44.730;37.818;2022-12-01T00:27:36;2.60;;;1.40;;
75154;SDS011;63735;44.730;37.818;2022-12-01T00:30:03;2.75;;;1.60;;
75154;SDS011;63735;44.730;37.818;2022-12-01T00:32:30;2.20;;;1.35;;
75154;SDS011;63735;44.730;37.818;2022-12-01T00:34:56;6.72;;;2.10;;
75154;SDS011;63735;44.730;37.818;2022-12-01T00:37:22;4.90;;;1.70;;
75154;SDS011;63735;44.730;37.818;2022-12-01T00:39:48;3.85;;;1.63;;
75154;SDS011;63735;44.730;37.818;2022-12-01T00:42:14;4.38;;;1.52;;
75154;SDS011;63735;44.730;37.818;2022-12-01T00:44:40;2.60;;;1.70;;
75154;SDS011;63735;44.730;37.818;2022-12-01T00:47:06;2.60;;;1.60;;
75154;SDS011;63735;44.730;37.818;2022-12-01T00:49:32;4.30;;;1.98;;
75154;SDS011;63735;44.730;37.818;2022-12-01T00:51:58;3.70;;;1.60;;
75154;SDS011;63735;44.730;37.818;2022-12-01T00:54:23;4.18;;;1.52;;
75154;SDS011;63735;44.730;37.818;2022-12-01T00:56:49;4.07;;;1.83;;
75154;SDS011;63735;44.730;37.818;2022-12-01T00:59:15;3.78;;;1.52;;
75154;SDS011;63735;44.730;37.818;2022-12-01T01:01:41;5.85;;;2.03;;
75154;SDS011;63735;44.730;37.818;2022-12-01T01:04:07;5.78;;;1.73;;
75154;SDS011;63735;44.730;37.818;2022-12-01T01:06:33;3.88;;;1.50;;
75154;SDS011;63735;44.730;37.818;2022-12-01T01:08:59;7.10;;;1.70;;
75154;SDS011;63735;44.730;37.818;2022-12-01T01:11:25;7.07;;;1.83;;
75154;SDS011;63735;44.730;37.818;2022-12-01T01:13:51;3.25;;;1.70;;
75154;SDS011;63735;44.730;37.818;2022-12-01T01:16:18;9.45;;;2.08;;
75154;SDS011;63735;44.730;37.818;2022-12-01T01:18:45;3.20;;;1.65;;
75154;SDS011;63735;44.730;37.818;2022-12-01T01:21:12;4.15;;;2.28;;
75154;SDS011;63735;44.730;37.818;2022-12-01T01:23:40;4.35;;;1.60;;
75154;SDS011;63735;44.730;37.818;2022-12-01T01:28:35;5.40;;;1.52;;
75154;SDS011;63735;44.730;37.818;2022-12-01T01:31:05;6.50;;;1.90;;
75154;SDS011;63735;44.730;37.818;2022-12-01T01:33:31;3.45;;;1.70;;
75154;SDS011;63735;44.730;37.818;2022-12-01T01:35:58;5.22;;;1.83;;
75154;SDS011;63735;44.730;37.818;2022-12-01T01:38:25;3.78;;;1.50;;
75154;SDS011;63735;44.730;37.818;2022-12-01T01:40:51;4.80;;;1.70;;
75154;SDS011;63735;44.730;37.818;2022-12-01T01:43:37;4.50;;;1.52;;
75154;SDS011;63735;44.730;37.818;2022-12-01T01:46:14;3.10;;;1.23;;
75154;SDS011;63735;44.730;37.818;2022-12-01T01:48:43;4.30;;;1.60;;
75154;SDS011;63735;44.730;37.818;2022-12-01T01:51:14;7.82;;;1.95;;
75154;SDS011;63735;44.730;37.818;2022-12-01T01:53:45;3.92;;;1.73;;
75154;SDS011;63735;44.730;37.818;2022-12-01T01:56:13;4.80;;;1.73;;
75154;SDS011;63735;44.730;37.818;2022-12-01T01:58:39;6.10;;;2.05;;
75154;SDS011;63735;44.730;37.818;2022-12-01T02:01:06;3.97;;;1.73;;
75154;SDS011;63735;44.730;37.818;2022-12-01T02:03:32;5.88;;;1.50;;
75154;SDS011;63735;44.730;37.818;2022-12-01T02:05:59;3.75;;;1.60;;
75154;SDS011;63735;44.730;37.818;2022-12-01T02:08:25;4.00;;;1.75;;
75154;SDS011;63735;44.730;37.818;2022-12-01T02:11:01;4.22;;;1.70;;
75154;SDS011;63735;44.730;37.818;2022-12-01T02:13:49;4.07;;;1.55;;
75154;SDS011;63735;44.730;37.818;2022-12-01T02:16:49;3.70;;;2.08;;
75154;SDS011;63735;44.730;37.818;2022-12-01T02:22:35;2.25;;;1.40;;
75154;SDS011;63735;44.730;37.818;2022-12-01T02:25:55;6.28;;;1.70;;
75154;SDS011;63735;44.730;37.818;2022-12-01T02:34:01;3.10;;;1.75;;
75154;SDS011;63735;44.730;37.818;2022-12-01T02:37:13;4.00;;;1.48;;
75154;SDS011;63735;44.730;37.818;2022-12-01T02:39:57;6.03;;;2.08;;
75154;SDS011;63735;44.730;37.818;2022-12-01T02:43:34;5.65;;;1.90;;
75154;SDS011;63735;44.730;37.818;2022-12-01T02:46:01;4.45;;;2.35;;
75154;SDS011;63735;44.730;37.818;2022-12-01T02:48:47;4.03;;;2.13;;
75154;SDS011;63735;44.730;37.818;2022-12-01T02:51:19;4.72;;;1.80;;
75154;SDS011;63735;44.730;37.818;2022-12-01T02:54:00;8.13;;;2.33;;
75154;SDS011;63735;44.730;37.818;2022-12-01T02:56:28;2.95;;;1.77;;
75154;SDS011;63735;44.730;37.818;2022-12-01T02:58:54;7.18;;;2.10;;
75154;SDS011;63735;44.730;37.818;2022-12-01T03:01:23;7.38;;;1.95;;
75154;SDS011;63735;44.730;37.818;2022-12-01T03:12:15;2.90;;;1.70;;
75154;SDS011;63735;44.730;37.818;2022-12-01T03:17:32;3.22;;;1.60;;
75154;SDS011;63735;44.730;37.818;2022-12-01T03:20:12;4.95;;;1.95;;
75154;SDS011;63735;44.730;37.818;2022-12-01T03:23:02;3.42;;;1.67;;
75154;SDS011;63735;44.730;37.818;2022-12-01T03:25:41;3.47;;;1.65;;
75154;SDS011;63735;44.730;37.818;2022-12-01T03:28:11;2.83;;;1.55;;
75154;SDS011;63735;44.730;37.818;2022-12-01T03:30:39;7.30;;;2.33;;
75154;SDS011;63735;44.730;37.818;2022-12-01T03:33:20;7.28;;;2.25;;
75154;SDS011;63735;44.730;37.818;2022-12-01T03:35:53;7.95;;;2.42;;
75154;SDS011;63735;44.730;37.818;2022-12-01T03:38:24;5.72;;;2.53;;
75154;SDS011;63735;44.730;37.818;2022-12-01T03:40:52;13.75;;;2.60;;
75154;SDS011;63735;44.730;37.818;2022-12-01T03:43:26;10.57;;;3.65;;
75154;SDS011;63735;44.730;37.818;2022-12-01T03:46:09;7.50;;;3.10;;
75154;SDS011;63735;44.730;37.818;2022-12-01T03:48:40;7.38;;;2.85;;
75154;SDS011;63735;44.730;37.818;2022-12-01T03:53:35;9.98;;;2.70;;
75154;SDS011;63735;44.730;37.818;2022-12-01T03:56:09;7.63;;;2.60;;
75154;SDS011;63735;44.730;37.818;2022-12-01T03:58:38;13.90;;;2.97;;
75154;SDS011;63735;44.730;37.818;2022-12-01T04:01:08;9.98;;;2.38;;
75154;SDS011;63735;44.730;37.818;2022-12-01T04:03:34;5.13;;;2.63;;
75154;SDS011;63735;44.730;37.818;2022-12-01T04:06:00;7.90;;;2.65;;
75154;SDS011;63735;44.730;37.818;2022-12-01T04:08:26;9.50;;;2.40;;
75154;SDS011;63735;44.730;37.818;2022-12-01T04:10:52;7.63;;;2.28;;
75154;SDS011;63735;44.730;37.818;2022-12-01T04:13:18;4.80;;;2.47;;
75154;SDS011;63735;44.730;37.818;2022-12-01T04:15:53;10.32;;;2.85;;
75154;SDS011;63735;44.730;37.818;2022-12-01T04:18:20;8.68;;;2.70;;
75154;SDS011;63735;44.730;37.818;2022-12-01T04:20:49;7.75;;;2.80;;
75154;SDS011;63735;44.730;37.818;2022-12-01T04:23:15;6.85;;;3.10;;
75154;SDS011;63735;44.730;37.818;2022-12-01T04:26:00;5.22;;;2.60;;
75154;SDS011;63735;44.730;37.818;2022-12-01T04:28:28;6.90;;;2.67;;
75154;SDS011;63735;44.730;37.818;2022-12-01T04:30:54;10.25;;;3.00;;
75154;SDS011;63735;44.730;37.818;2022-12-01T04:33:20;9.65;;;2.63;;
75154;SDS011;63735;44.730;37.818;2022-12-01T04:35:54;6.65;;;3.05;;
75154;SDS011;63735;44.730;37.818;2022-12-01T04:38:21;8.07;;;2.53;;
75154;SDS011;63735;44.730;37.818;2022-12-01T04:40:47;6.53;;;2.70;;
75154;SDS011;63735;44.730;37.818;2022-12-01T04:43:13;6.05;;;2.33;;
75154;SDS011;63735;44.730;37.818;2022-12-01T04:45:39;5.63;;;2.78;;
75154;SDS011;63735;44.730;37.818;2022-12-01T04:48:05;10.32;;;3.17;;
75154;SDS011;63735;44.730;37.818;2022-12-01T04:50:31;5.63;;;2.47;;
75154;SDS011;63735;44.730;37.818;2022-12-01T04:52:57;16.42;;;2.95;;
75154;SDS011;63735;44.730;37.818;2022-12-01T04:55:23;6.68;;;3.25;;
75154;SDS011;63735;44.730;37.818;2022-12-01T04:57:50;11.10;;;3.10;;
75154;SDS011;63735;44.730;37.818;2022-12-01T05:00:16;8.02;;;2.97;;
75154;SDS011;63735;44.730;37.818;2022-12-01T05:02:42;8.77;;;2.97;;
75154;SDS011;63735;44.730;37.818;2022-12-01T05:05:09;10.93;;;2.40;;
75154;SDS011;63735;44.730;37.818;2022-12-01T05:07:35;7.30;;;2.30;;
75154;SDS011;63735;44.730;37.818;2022-12-01T05:10:02;14.95;;;2.60;;
75154;SDS011;63735;44.730;37.818;2022-12-01T05:12:28;4.90;;;2.72;;
75154;SDS011;63735;44.730;37.818;2022-12-01T05:14:54;3.80;;;2.13;;
75154;SDS011;63735;44.730;37.818;2022-12-01T05:17:20;7.28;;;3.03;;
75154;SDS011;63735;44.730;37.818;2022-12-01T05:19:45;4.80;;;2.78;;
75154;SDS011;63735;44.730;37.818;2022-12-01T05:22:30;4.63;;;2.50;;
75154;SDS011;63735;44.730;37.818;2022-12-01T05:24:56;10.43;;;3.17;;
75154;SDS011;63735;44.730;37.818;2022-12-01T05:27:21;8.30;;;3.20;;
75154;SDS011;63735;44.730;37.818;2022-12-01T05:29:47;5.63;;;3.30;;
75154;SDS011;63735;44.730;37.818;2022-12-01T05:32:13;6.82;;;2.47;;
75154;SDS011;63735;44.730;37.818;2022-12-01T05:34:39;6.40;;;2.88;;
75154;SDS011;63735;44.730;37.818;2022-12-01T05:37:05;8.23;;;3.20;;
75154;SDS011;63735;44.730;37.818;2022-12-01T05:39:31;12.88;;;3.05;;
75154;SDS011;63735;44.730;37.818;2022-12-01T05:41:57;10.38;;;3.90;;
75154;SDS011;63735;44.730;37.818;2022-12-01T05:44:23;10.55;;;3.58;;
75154;SDS011;63735;44.730;37.818;2022-12-01T05:46:49;16.20;;;3.45;;
75154;SDS011;63735;44.730;37.818;2022-12-01T05:49:14;9.13;;;3.60;;
75154;SDS011;63735;44.730;37.818;2022-12-01T05:51:41;5.75;;;2.97;;
75154;SDS011;63735;44.730;37.818;2022-12-01T05:54:07;12.02;;;2.72;;
75154;SDS011;63735;44.730;37.818;2022-12-01T05:56:33;16.42;;;3.42;;
75154;SDS011;63735;44.730;37.818;2022-12-01T05:58:59;10.60;;;2.90;;
75154;SDS011;63735;44.730;37.818;2022-12-01T06:01:25;13.02;;;2.88;;
75154;SDS011;63735;44.730;37.818;2022-12-01T06:03:51;7.18;;;3.33;;
75154;SDS011;63735;44.730;37.818;2022-12-01T06:06:17;8.95;;;3.50;;
75154;SDS011;63735;44.730;37.818;2022-12-01T06:08:44;6.15;;;3.35;;
75154;SDS011;63735;44.730;37.818;2022-12-01T06:11:10;9.20;;;3.67;;
75154;SDS011;63735;44.730;37.818;2022-12-01T06:13:36;9.27;;;3.50;;
75154;SDS011;63735;44.730;37.818;2022-12-01T06:16:02;10.25;;;3.80;;
75154;SDS011;63735;44.730;37.818;2022-12-01T06:18:34;21.52;;;6.22;;
75154;SDS011;63735;44.730;37.818;2022-12-01T06:21:01;11.63;;;4.63;;
75154;SDS011;63735;44.730;37.818;2022-12-01T06:23:28;11.07;;;3.45;;
75154;SDS011;63735;44.730;37.818;2022-12-01T06:25:54;15.00;;;3.58;;
75154;SDS011;63735;44.730;37.818;2022-12-01T06:28:20;11.15;;;3.92;;
75154;SDS011;63735;44.730;37.818;2022-12-01T06:30:46;14.25;;;3.70;;
75154;SDS011;63735;44.730;37.818;2022-12-01T06:33:12;16.20;;;4.30;;
75154;SDS011;63735;44.730;37.818;2022-12-01T06:35:38;15.05;;;5.00;;
75154;SDS011;63735;44.730;37.818;2022-12-01T06:38:04;27.73;;;5.57;;
75154;SDS011;63735;44.730;37.818;2022-12-01T06:40:30;24.10;;;5.28;;
75154;SDS011;63735;44.730;37.818;2022-12-01T06:42:59;17.90;;;5.07;;
75154;SDS011;63735;44.730;37.818;2022-12-01T06:45:28;21.90;;;5.25;;
75154;SDS011;63735;44.730;37.818;2022-12-01T06:47:55;18.83;;;5.45;;
75154;SDS011;63735;44.730;37.818;2022-12-01T06:50:22;21.10;;;5.88;;
75154;SDS011;63735;44.730;37.818;2022-12-01T06:52:49;18.50;;;5.32;;
75154;SDS011;63735;44.730;37.818;2022-12-01T06:55:15;16.73;;;5.43;;
75154;SDS011;63735;44.730;37.818;2022-12-01T06:57:41;18.25;;;5.40;;
75154;SDS011;63735;44.730;37.818;2022-12-01T07:00:07;26.05;;;6.22;;
75154;SDS011;63735;44.730;37.818;2022-12-01T07:02:34;13.93;;;4.95;;
75154;SDS011;63735;44.730;37.818;2022-12-01T07:05:00;18.30;;;5.25;;
75154;SDS011;63735;44.730;37.818;2022-12-01T07:07:26;20.52;;;4.47;;
75154;SDS011;63735;44.730;37.818;2022-12-01T07:09:52;10.98;;;4.95;;
75154;SDS011;63735;44.730;37.818;2022-12-01T07:12:18;18.15;;;4.80;;
75154;SDS011;63735;44.730;37.818;2022-12-01T07:14:44;23.90;;;5.40;;
75154;SDS011;63735;44.730;37.818;2022-12-01T07:17:09;29.95;;;6.45;;
75154;SDS011;63735;44.730;37.818;2022-12-01T07:19:35;18.80;;;6.43;;
75154;SDS011;63735;44.730;37.818;2022-12-01T07:22:01;26.13;;;6.28;;
75154;SDS011;63735;44.730;37.818;2022-12-01T07:24:28;15.77;;;5.07;;
75154;SDS011;63735;44.730;37.818;2022-12-01T07:26:54;11.55;;;4.28;;
75154;SDS011;63735;44.730;37.818;2022-12-01T07:29:20;14.60;;;4.97;;
75154;SDS011;63735;44.730;37.818;2022-12-01T07:31:46;22.20;;;5.78;;
75154;SDS011;63735;44.730;37.818;2022-12-01T07:34:12;9.48;;;4.18;;
75154;SDS011;63735;44.730;37.818;2022-12-01T07:36:38;21.40;;;5.05;;
75154;SDS011;63735;44.730;37.818;2022-12-01T07:39:07;18.90;;;4.22;;
75154;SDS011;63735;44.730;37.818;2022-12-01T07:41:33;23.15;;;4.88;;
75154;SDS011;63735;44.730;37.818;2022-12-01T07:44:00;14.73;;;4.60;;
75154;SDS011;63735;44.730;37.818;2022-12-01T07:46:26;22.73;;;4.53;;
75154;SDS011;63735;44.730;37.818;2022-12-01T07:48:52;26.63;;;5.25;;
75154;SDS011;63735;44.730;37.818;2022-12-01T07:51:20;31.33;;;4.97;;
75154;SDS011;63735;44.730;37.818;2022-12-01T07:53:47;20.95;;;5.28;;
75154;SDS011;63735;44.730;37.818;2022-12-01T07:56:15;29.33;;;5.45;;
75154;SDS011;63735;44.730;37.818;2022-12-01T07:58:42;21.63;;;4.13;;
75154;SDS011;63735;44.730;37.818;2022-12-01T08:01:09;15.93;;;4.35;;
75154;SDS011;63735;44.730;37.818;2022-12-01T08:03:38;23.20;;;5.10;;
75154;SDS011;63735;44.730;37.818;2022-12-01T08:06:05;18.88;;;3.22;;
75154;SDS011;63735;44.730;37.818;2022-12-01T08:08:33;16.52;;;4.47;;
75154;SDS011;63735;44.730;37.818;2022-12-01T08:11:01;19.40;;;3.97;;
75154;SDS011;63735;44.730;37.818;2022-12-01T08:13:29;21.15;;;3.80;;
75154;SDS011;63735;44.730;37.818;2022-12-01T08:15:55;11.95;;;3.65;;
75154;SDS011;63735;44.730;37.818;2022-12-01T08:18:21;8.90;;;3.20;;
75154;SDS011;63735;44.730;37.818;2022-12-01T08:20:48;17.83;;;5.05;;
75154;SDS011;63735;44.730;37.818;2022-12-01T08:23:14;15.57;;;3.95;;
75154;SDS011;63735;44.730;37.818;2022-12-01T08:25:40;19.85;;;2.92;;
75154;SDS011;63735;44.730;37.818;2022-12-01T08:28:06;6.63;;;2.10;;
75154;SDS011;63735;44.730;37.818;2022-12-01T08:30:32;27.67;;;4.90;;
75154;SDS011;63735;44.730;37.818;2022-12-01T08:32:58;22.73;;;4.00;;
75154;SDS011;63735;44.730;37.818;2022-12-01T08:35:24;11.88;;;3.05;;
75154;SDS011;63735;44.730;37.818;2022-12-01T08:37:50;9.65;;;2.00;;
75154;SDS011;63735;44.730;37.818;2022-12-01T08:42:44;14.38;;;3.15;;
75154;SDS011;63735;44.730;37.818;2022-12-01T08:45:10;18.92;;;2.88;;
75154;SDS011;63735;44.730;37.818;2022-12-01T08:47:36;13.65;;;2.60;;
75154;SDS011;63735;44.730;37.818;2022-12-01T08:50:02;9.85;;;2.03;;
75154;SDS011;63735;44.730;37.818;2022-12-01T08:52:32;14.15;;;1.50;;
75154;SDS011;63735;44.730;37.818;2022-12-01T08:55:00;4.15;;;1.70;;
75154;SDS011;63735;44.730;37.818;2022-12-01T08:57:28;10.27;;;1.63;;
75154;SDS011;63735;44.730;37.818;2022-12-01T08:59:54;12.80;;;2.00;;
75154;SDS011;63735;44.730;37.818;2022-12-01T09:02:20;8.38;;;1.50;;
75154;SDS011;63735;44.730;37.818;2022-12-01T09:04:49;11.93;;;2.92;;
75154;SDS011;63735;44.730;37.818;2022-12-01T09:07:15;7.47;;;1.30;;
75154;SDS011;63735;44.730;37.818;2022-12-01T09:09:42;10.82;;;1.55;;
75154;SDS011;63735;44.730;37.818;2022-12-01T09:12:09;11.73;;;2.45;;
75154;SDS011;63735;44.730;37.818;2022-12-01T09:14:37;3.80;;;1.35;;
75154;SDS011;63735;44.730;37.818;2022-12-01T09:17:04;15.20;;;1.77;;
75154;SDS011;63735;44.730;37.818;2022-12-01T09:19:30;13.98;;;1.73;;
75154;SDS011;63735;44.730;37.818;2022-12-01T09:21:56;16.05;;;1.65;;
75154;SDS011;63735;44.730;37.818;2022-12-01T09:24:22;13.98;;;2.15;;
75154;SDS011;63735;44.730;37.818;2022-12-01T09:26:49;7.22;;;1.38;;
75154;SDS011;63735;44.730;37.818;2022-12-01T09:29:18;7.05;;;1.48;;
75154;SDS011;63735;44.730;37.818;2022-12-01T09:31:44;10.10;;;1.67;;
75154;SDS011;63735;44.730;37.818;2022-12-01T09:34:11;7.82;;;1.40;;
75154;SDS011;63735;44.730;37.818;2022-12-01T09:36:38;5.30;;;1.73;;
75154;SDS011;63735;44.730;37.818;2022-12-01T09:39:05;6.60;;;1.50;;
75154;SDS011;63735;44.730;37.818;2022-12-01T09:41:33;8.70;;;1.48;;
75154;SDS011;63735;44.730;37.818;2022-12-01T09:52:24;4.53;;;1.50;;
75154;SDS011;63735;44.730;37.818;2022-12-01T09:54:51;6.80;;;1.58;;
75154;SDS011;63735;44.730;37.818;2022-12-01T09:57:32;10.73;;;1.80;;
75154;SDS011;63735;44.730;37.818;2022-12-01T10:00:05;8.35;;;1.95;;
75154;SDS011;63735;44.730;37.818;2022-12-01T10:02:52;7.05;;;1.83;;
75154;SDS011;63735;44.730;37.818;2022-12-01T10:05:24;9.80;;;2.10;;
75154;SDS011;63735;44.730;37.818;2022-12-01T10:07:56;4.18;;;1.63;;
75154;SDS011;63735;44.730;37.818;2022-12-01T10:10:26;7.03;;;1.70;;
75154;SDS011;63735;44.730;37.818;2022-12-01T10:12:58;8.68;;;2.35;;
75154;SDS011;63735;44.730;37.818;2022-12-01T10:18:33;7.28;;;2.08;;
75154;SDS011;63735;44.730;37.818;2022-12-01T10:32:26;9.27;;;2.58;;
75154;SDS011;63735;44.730;37.818;2022-12-01T10:34:57;5.55;;;2.25;;
75154;SDS011;63735;44.730;37.818;2022-12-01T10:37:26;6.03;;;2.20;;
75154;SDS011;63735;44.730;37.818;2022-12-01T10:39:54;7.07;;;2.30;;
75154;SDS011;63735;44.730;37.818;2022-12-01T10:42:42;7.75;;;1.80;;
75154;SDS011;63735;44.730;37.818;2022-12-01T10:45:21;5.05;;;1.73;;
75154;SDS011;63735;44.730;37.818;2022-12-01T10:50:34;5.72;;;1.85;;
75154;SDS011;63735;44.730;37.818;2022-12-01T10:53:00;5.78;;;2.05;;
75154;SDS011;63735;44.730;37.818;2022-12-01T10:55:28;6.07;;;2.15;;
75154;SDS011;63735;44.730;37.818;2022-12-01T10:57:58;5.72;;;2.10;;
75154;SDS011;63735;44.730;37.818;2022-12-01T11:00:30;4.35;;;2.08;;
75154;SDS011;63735;44.730;37.818;2022-12-01T11:03:00;3.33;;;2.22;;
75154;SDS011;63735;44.730;37.818;2022-12-01T11:05:28;5.43;;;2.13;;
75154;SDS011;63735;44.730;37.818;2022-12-01T11:08:03;8.15;;;2.72;;
75154;SDS011;63735;44.730;37.818;2022-12-01T11:10:34;6.68;;;2.55;;
75154;SDS011;63735;44.730;37.818;2022-12-01T11:13:06;5.85;;;2.50;;
75154;SDS011;63735;44.730;37.818;2022-12-01T11:15:50;3.55;;;2.00;;
75154;SDS011;63735;44.730;37.818;2022-12-01T11:20:46;8.98;;;3.13;;
75154;SDS011;63735;44.730;37.818;2022-12-01T11:23:22;10.85;;;2.40;;
75154;SDS011;63735;44.730;37.818;2022-12-01T11:31:41;5.15;;;2.28;;
75154;SDS011;63735;44.730;37.818;2022-12-01T11:34:15;5.75;;;2.45;;
75154;SDS011;63735;44.730;37.818;2022-12-01T11:36:45;9.23;;;3.03;;
75154;SDS011;63735;44.730;37.818;2022-12-01T11:39:26;16.67;;;3.45;;
75154;SDS011;63735;44.730;37.818;2022-12-01T11:42:17;4.78;;;2.53;;
75154;SDS011;63735;44.730;37.818;2022-12-01T11:47:58;11.68;;;5.50;;
75154;SDS011;63735;44.730;37.818;2022-12-01T11:50:27;7.60;;;3.22;;
75154;SDS011;63735;44.730;37.818;2022-12-01T11:52:55;10.98;;;3.72;;
75154;SDS011;63735;44.730;37.818;2022-12-01T11:55:23;7.88;;;3.30;;
75154;SDS011;63735;44.730;37.818;2022-12-01T11:57:51;5.97;;;3.05;;
75154;SDS011;63735;44.730;37.818;2022-12-01T12:00:21;9.23;;;3.42;;
75154;SDS011;63735;44.730;37.818;2022-12-01T12:06:06;5.10;;;2.90;;
75154;SDS011;63735;44.730;37.818;2022-12-01T12:11:55;9.35;;;3.53;;
75154;SDS011;63735;44.730;37.818;2022-12-01T12:14:51;6.43;;;3.17;;
75154;SDS011;63735;44.730;37.818;2022-12-01T12:20:29;6.50;;;2.75;;
75154;SDS011;63735;44.730;37.818;2022-12-01T12:34:16;10.48;;;3.33;;
75154;SDS011;63735;44.730;37.818;2022-12-01T12:50:36;7.47;;;3.28;;
75154;SDS011;63735;44.730;37.818;2022-12-01T12:53:15;11.40;;;3.88;;
75154;SDS011;63735;44.730;37.818;2022-12-01T12:55:48;8.38;;;2.92;;
75154;SDS011;63735;44.730;37.818;2022-12-01T13:00:50;4.38;;;2.50;;
75154;SDS011;63735;44.730;37.818;2022-12-01T13:06:35;6.80;;;3.10;;
75154;SDS011;63735;44.730;37.818;2022-12-01T13:09:06;5.20;;;2.55;;
75154;SDS011;63735;44.730;37.818;2022-12-01T13:11:54;7.93;;;3.25;;
75154;SDS011;63735;44.730;37.818;2022-12-01T13:17:13;6.93;;;3.13;;
75154;SDS011;63735;44.730;37.818;2022-12-01T13:20:00;7.72;;;2.78;;
75154;SDS011;63735;44.730;37.818;2022-12-01T13:22:31;6.40;;;2.90;;
75154;SDS011;63735;44.730;37.818;2022-12-01T13:24:59;6.78;;;2.95;;
75154;SDS011;63735;44.730;37.818;2022-12-01T13:27:27;4.25;;;2.63;;
75154;SDS011;63735;44.730;37.818;2022-12-01T13:29:57;8.48;;;2.67;;
75154;SDS011;63735;44.730;37.818;2022-12-01T13:32:28;8.55;;;3.10;;
75154;SDS011;63735;44.730;37.818;2022-12-01T13:35:04;7.28;;;4.20;;
75154;SDS011;63735;44.730;37.818;2022-12-01T13:37:46;6.97;;;2.58;;
75154;SDS011;63735;44.730;37.818;2022-12-01T13:43:02;5.50;;;2.90;;
75154;SDS011;63735;44.730;37.818;2022-12-01T13:45:34;8.52;;;2.90;;
75154;SDS011;63735;44.730;37.818;2022-12-01T13:48:02;6.50;;;3.17;;
75154;SDS011;63735;44.730;37.818;2022-12-01T13:50:37;11.32;;;3.00;;
75154;SDS011;63735;44.730;37.818;2022-12-01T13:58:39;8.85;;;2.75;;
75154;SDS011;63735;44.730;37.818;2022-12-01T14:03:52;6.53;;;2.60;;
75154;SDS011;63735;44.730;37.818;2022-12-01T14:06:43;4.70;;;2.28;;
75154;SDS011;63735;44.730;37.818;2022-12-01T14:09:13;3.97;;;2.28;;
75154;SDS011;63735;44.730;37.818;2022-12-01T14:11:57;12.13;;;2.63;;
75154;SDS011;63735;44.730;37.818;2022-12-01T14:14:35;6.60;;;2.40;;
75154;SDS011;63735;44.730;37.818;2022-12-01T14:17:19;5.75;;;2.33;;
75154;SDS011;63735;44.730;37.818;2022-12-01T14:19:49;4.28;;;2.00;;
75154;SDS011;63735;44.730;37.818;2022-12-01T14:27:48;11.55;;;2.65;;
75154;SDS011;63735;44.730;37.818;2022-12-01T14:41:24;6.57;;;2.20;;
75154;SDS011;63735;44.730;37.818;2022-12-01T14:44:27;5.53;;;2.25;;
75154;SDS011;63735;44.730;37.818;2022-12-01T14:47:04;4.32;;;2.28;;
75154;SDS011;63735;44.730;37.818;2022-12-01T14:52:39;4.40;;;2.40;;
75154;SDS011;63735;44.730;37.818;2022-12-01T14:55:18;3.67;;;2.20;;
75154;SDS011;63735;44.730;37.818;2022-12-01T14:57:50;4.82;;;2.40;;
75154;SDS011;63735;44.730;37.818;2022-12-01T15:00:23;5.07;;;2.38;;
75154;SDS011;63735;44.730;37.818;2022-12-01T15:02:53;6.22;;;2.38;;
75154;SDS011;63735;44.730;37.818;2022-12-01T15:05:31;7.28;;;2.83;;
75154;SDS011;63735;44.730;37.818;2022-12-01T15:08:15;8.80;;;2.60;;
75154;SDS011;63735;44.730;37.818;2022-12-01T15:10:51;5.65;;;2.50;;
75154;SDS011;63735;44.730;37.818;2022-12-01T15:13:26;5.70;;;2.67;;
75154;SDS011;63735;44.730;37.818;2022-12-01T15:16:15;8.15;;;2.20;;
75154;SDS011;63735;44.730;37.818;2022-12-01T15:18:43;6.65;;;2.80;;
75154;SDS011;63735;44.730;37.818;2022-12-01T15:21:16;10.07;;;2.42;;
75154;SDS011;63735;44.730;37.818;2022-12-01T15:24:16;5.40;;;2.45;;
75154;SDS011;63735;44.730;37.818;2022-12-01T15:26:32;13.02;;;3.15;;
75154;SDS011;63735;44.730;37.818;2022-12-01T15:29:13;10.13;;;3.90;;
75154;SDS011;63735;44.730;37.818;2022-12-01T15:31:47;5.13;;;2.63;;
75154;SDS011;63735;44.730;37.818;2022-12-01T15:34:57;7.60;;;3.28;;
75154;SDS011;63735;44.730;37.818;2022-12-01T15:37:08;5.75;;;2.35;;
75154;SDS011;63735;44.730;37.818;2022-12-01T15:39:43;7.88;;;2.97;;
75154;SDS011;63735;44.730;37.818;2022-12-01T15:42:30;7.13;;;3.25;;
75154;SDS011;63735;44.730;37.818;2022-12-01T15:44:59;6.50;;;3.22;;
75154;SDS011;63735;44.730;37.818;2022-12-01T15:53:47;4.43;;;2.40;;
75154;SDS011;63735;44.730;37.818;2022-12-01T15:55:50;9.40;;;3.53;;
75154;SDS011;63735;44.730;37.818;2022-12-01T15:58:20;6.13;;;2.85;;
75154;SDS011;63735;44.730;37.818;2022-12-01T16:00:58;6.22;;;3.15;;
75154;SDS011;63735;44.730;37.818;2022-12-01T16:03:27;5.07;;;2.60;;
75154;SDS011;63735;44.730;37.818;2022-12-01T16:05:54;4.82;;;1.98;;
75154;SDS011;63735;44.730;37.818;2022-12-01T16:08:25;5.47;;;3.10;;
75154;SDS011;63735;44.730;37.818;2022-12-01T16:11:08;9.13;;;2.65;;
75154;SDS011;63735;44.730;37.818;2022-12-01T16:18:54;4.90;;;2.10;;
75154;SDS011;63735;44.730;37.818;2022-12-01T16:21:22;4.63;;;2.00;;
75154;SDS011;63735;44.730;37.818;2022-12-01T16:23:56;3.65;;;1.92;;
75154;SDS011;63735;44.730;37.818;2022-12-01T16:26:28;6.90;;;2.55;;
75154;SDS011;63735;44.730;37.818;2022-12-01T16:28:54;6.57;;;2.38;;
75154;SDS011;63735;44.730;37.818;2022-12-01T16:31:21;6.30;;;3.28;;
75154;SDS011;63735;44.730;37.818;2022-12-01T16:33:49;5.65;;;2.50;;
75154;SDS011;63735;44.730;37.818;2022-12-01T16:36:27;5.13;;;2.65;;
75154;SDS011;63735;44.730;37.818;2022-12-01T16:38:53;6.07;;;2.45;;
75154;SDS011;63735;44.730;37.818;2022-12-01T16:41:32;7.90;;;2.33;;
75154;SDS011;63735;44.730;37.818;2022-12-01T16:44:00;6.70;;;3.83;;
75154;SDS011;63735;44.730;37.818;2022-12-01T16:46:26;4.80;;;2.70;;
75154;SDS011;63735;44.730;37.818;2022-12-01T16:48:52;8.20;;;2.72;;
75154;SDS011;63735;44.730;37.818;2022-12-01T16:51:18;8.13;;;2.70;;
75154;SDS011;63735;44.730;37.818;2022-12-01T16:53:44;6.82;;;2.45;;
75154;SDS011;63735;44.730;37.818;2022-12-01T16:56:12;5.15;;;2.30;;
75154;SDS011;63735;44.730;37.818;2022-12-01T16:58:38;5.32;;;2.72;;
75154;SDS011;63735;44.730;37.818;2022-12-01T17:01:05;4.78;;;2.38;;
75154;SDS011;63735;44.730;37.818;2022-12-01T17:03:32;9.45;;;2.53;;
75154;SDS011;63735;44.730;37.818;2022-12-01T17:05:59;8.10;;;3.45;;
75154;SDS011;63735;44.730;37.818;2022-12-01T17:08:26;4.72;;;2.13;;
75154;SDS011;63735;44.730;37.818;2022-12-01T17:10:52;4.45;;;2.45;;
75154;SDS011;63735;44.730;37.818;2022-12-01T17:13:19;6.22;;;2.95;;
75154;SDS011;63735;44.730;37.818;2022-12-01T17:15:51;7.00;;;2.95;;
75154;SDS011;63735;44.730;37.818;2022-12-01T17:18:18;5.22;;;1.98;;